# TIME ORIGINAL RWY/APCH USING RWY TIMESTAMP
201703090400 TIS ATIS RJTT P M0400 (APCH)LDA W RWY22/LDA W RWY23 LDG RWY 22/23 DEP RWY 16L/16R DEP FREQ 126.0 FM RWY16R. 120.8 FM RWY16L, SIMUL LDA APCHS TO RWY22/RWY23 ARE INPR, M 090400Z 16010KT 140V200 30KM FEW030CU 11/M03 Q1004/A2966= Q/TWO NINE SIX SIX STP APCH 090400 RJTT (APCH)LDA W RWY22/LDA W RWY23 LDG RWY 22/23 DEP RWY 16L/16R 22,23 2017-03-09 13:05:05
201703090330 TIS ATIS RJTT O M0330 (APCH)LDA W RWY22/LDA W RWY23 LDG RWY 22/23 DEP RWY 16L/16R DEP FREQ 126.0 FM RWY16R. 120.8 FM RWY16L, SIMUL LDA APCHS TO RWY22/RWY23 ARE INPR, M 090330Z 14009KT 30KM FEW030CU 11/M03 Q1004/A2967= Q/TWO NINE SIX SEVEN STP APCH 090330 RJTT (APCH)LDA W RWY22/LDA W RWY23 LDG RWY 22/23 DEP RWY 16L/16R 22,23 2017-03-09 12:35:04
201703090300 TIS ATIS RJTT N M0300 (APCH)LDA W RWY22/LDA W RWY23 LDG RWY 22/23 DEP RWY 16L/16R DEP FREQ 126.0 FM RWY16R. 120.8 FM RWY16L, SIMUL LDA APCHS TO RWY22/RWY23 ARE INPR, M 090300Z 15008KT 130V190 30KM FEW030CU 11/M04 Q1005/A2969= Q/TWO NINE SIX NINE STP APCH 090300 RJTT (APCH)LDA W RWY22/LDA W RWY23 LDG RWY 22/23 DEP RWY 16L/16R 22,23 2017-03-09 12:05:04
201703090230 TIS ATIS RJTT K M0230 (APCH)ILS X RWY34L/HIGHWAY VSL RWY34R LDG RWY 34L/34R DEP RWY 05/34R DEP FREQ 126.0 FM RWY05. 120.8 FM RWY34R, SIMUL APCHS TO RWY34L/R ARE INPR, M 090230Z 10006KT 30KM FEW030CU 09/M02 Q1006/A2971= Q/TWO NINE SEVEN ONE STP APCH 090230 RJTT (APCH)ILS X RWY34L/HIGHWAY VSL RWY34R LDG RWY 34L/34R DEP RWY 05/34R 34L,34R 2017-03-09 11:35:04
201703090200 TIS ATIS RJTT J M0200 (APCH)ILS X RWY34L/HIGHWAY VSL RWY34R LDG RWY 34L/34R DEP RWY 05/34R DEP FREQ 126.0 FM RWY05. 120.8 FM RWY34R, SIMUL APCHS TO RWY34L/R ARE INPR, M 090200Z 10005KT 30KM FEW030CU 08/M03 Q1006/A2972= Q/TWO NINE SEVEN TWO STP APCH 090200 RJTT (APCH)ILS X RWY34L/HIGHWAY VSL RWY34R LDG RWY 34L/34R DEP RWY 05/34R 34L,34R 2017-03-09 11:05:03
201703090130 TIS ATIS RJTT I M0130 (APCH)ILS X RWY34L/HIGHWAY VSL RWY34R LDG RWY 34L/34R DEP RWY 05/34R DEP FREQ 126.0 FM RWY05. 120.8 FM RWY34R, SIMUL APCHS TO RWY34L/R ARE INPR, M 090130Z 12006KT 30KM FEW030CU 08/M04 Q1006/A2973= Q/TWO NINE SEVEN THREE STP APCH 090130 RJTT (APCH)ILS X RWY34L/HIGHWAY VSL RWY34R LDG RWY 34L/34R DEP RWY 05/34R 34L,34R 2017-03-09 10:35:03
201703090100 TIS ATIS RJTT H M0100 (APCH)ILS X RWY34L/HIGHWAY VSL RWY34R LDG RWY 34L/34R DEP RWY 05/34R DEP FREQ 126.0 FM RWY05. 120.8 FM RWY34R, SIMUL APCHS TO RWY34L/R ARE INPR, M 090100Z 11005KT 30KM FEW030CU 08/M03 Q1007/A2974= Q/TWO NINE SEVEN FOUR STP APCH 090100 RJTT (APCH)ILS X RWY34L/HIGHWAY VSL RWY34R LDG RWY 34L/34R DEP RWY 05/34R 34L,34R 2017-03-09 10:05:04
201703090030 TIS ATIS RJTT G M0030 (APCH)ILS X RWY34L/HIGHWAY VSL RWY34R LDG RWY 34L/34R DEP RWY 05/34R DEP FREQ 126.0 FM RWY05. 120.8 FM RWY34R, SIMUL APCHS TO RWY34L/R ARE INPR, M 090030Z 10004KT 30KM FEW030CU 07/M04 Q1007/A2974= Q/TWO NINE SEVEN FOUR STP APCH 090030 RJTT (APCH)ILS X RWY34L/HIGHWAY VSL RWY34R LDG RWY 34L/34R DEP RWY 05/34R 34L,34R 2017-03-09 09:35:03
201703090000 TIS ATIS RJTT F M0000 (APCH)ILS X RWY34L/HIGHWAY VSL RWY34R LDG RWY 34L/34R DEP RWY 05/34R DEP FREQ 126.0 FM RWY05. 120.8 FM RWY34R, SIMUL APCHS TO RWY34L/R ARE INPR, M 090000Z 11003KT 080V140 40KM FEW030CU 07/M04 Q1007/A2975= Q/TWO NINE SEVEN FIVE STP APCH 090000 RJTT (APCH)ILS X RWY34L/HIGHWAY VSL RWY34R LDG RWY 34L/34R DEP RWY 05/34R 34L,34R 2017-03-09 09:05:04
201703082330 TIS ATIS RJTT E M2330 (APCH)ILS X RWY34L/HIGHWAY VSL RWY34R LDG RWY 34L/34R DEP RWY 05/34R DEP FREQ 126.0 FM RWY05. 120.8 FM RWY34R, SIMUL APCHS TO RWY34L/R ARE INPR, M 082330Z 12003KT 080V160 40KM FEW030CU 07/M05 Q1007/A2975= Q/TWO NINE SEVEN FIVE STP APCH 082330 RJTT (APCH)ILS X RWY34L/HIGHWAY VSL RWY34R LDG RWY 34L/34R DEP RWY 05/34R 34L,34R 2017-03-09 08:35:03
201703082300 TIS ATIS RJTT D M2300 (APCH)ILS X RWY34L/HIGHWAY VSL RWY34R LDG RWY 34L/34R DEP RWY 05/34R DEP FREQ 126.0 FM RWY05. 120.8 FM RWY34R, SIMUL APCHS TO RWY34L/R ARE INPR, M 082300Z VRB02KT 50KM FEW030CU 06/M04 Q1007/A2975= Q/TWO NINE SEVEN FIVE STP APCH 082300 RJTT (APCH)ILS X RWY34L/HIGHWAY VSL RWY34R LDG RWY 34L/34R DEP RWY 05/34R 34L,34R 2017-03-09 08:10:05
201703082230 TIS ATIS RJTT C M2230 (APCH)ILS Z RWY34L LDG RWY 34L DEP RWY 05/34R DEP FREQ 126.0 FM RWY05. 120.8 FM RWY34R, M 082230Z VRB02KT 50KM FEW030CU 05/M06 Q1007/A2974= Q/TWO NINE SEVEN FOUR STP APCH 082230 RJTT (APCH)ILS Z RWY34L LDG RWY 34L DEP RWY 05/34R 34L 2017-03-09 07:35:03
201703082200 TIS ATIS RJTT B M2200 (APCH)ILS Z RWY34L LDG RWY 34L DEP RWY 05/34R DEP FREQ 126.0 FM RWY05. 120.8 FM RWY34R, M 082200Z 26003KT 240V330 50KM FEW030CU 04/M06 Q1007/A2974= Q/TWO NINE SEVEN FOUR STP APCH 082200 RJTT (APCH)ILS Z RWY34L LDG RWY 34L DEP RWY 05/34R 34L 2017-03-09 07:05:03
201703082130 TIS ATIS RJTT A M2130 (APCH)ILS X RWY34L LDG RWY 34L DEP RWY 05/34R DEP FREQ 126.0 FM RWY05. 120.8 FM RWY34R, M 082130Z 26004KT 240V310 50KM FEW030CU 03/M06 Q1006/A2973= Q/TWO NINE SEVEN THREE STP APCH 082130 RJTT (APCH)ILS X RWY34L LDG RWY 34L DEP RWY 05/34R 34L 2017-03-09 06:35:03
201703082100 TIS ATIS RJTT Z M2100 (APCH)ILS X RWY34L LDG RWY 34L DEP RWY 05/34R DEP FREQ 126.0 FM RWY05. 120.8 FM RWY34R, M 082100Z 26005KT 30KM FEW030CU 03/M05 Q1006/A2973= Q/TWO NINE SEVEN THREE STP APCH 082100 RJTT (APCH)ILS X RWY34L LDG RWY 34L DEP RWY 05/34R 34L 2017-03-09 06:05:03
201703082030 TIS ATIS RJTT Y M2030 (APCH)ILS Y RWY34R USING RWY 34R DEP FREQ 126.0, RWY16R/34L AND 05/23 CLSD, M 082030Z 26007KT 30KM FEW030CU 02/M06 Q1006/A2972= Q/TWO NINE SEVEN TWO STP APCH 082030 RJTT (APCH)ILS Y RWY34R USING RWY 34R 34R 2017-03-09 05:35:04
201703082000 TIS ATIS RJTT X M2000 (APCH)ILS Y RWY34R USING RWY 34R DEP FREQ 126.0, RWY16R/34L AND 05/23 CLSD, M 082000Z 29004KT 30KM FEW060SC 04/M06 Q1006/A2972= Q/TWO NINE SEVEN TWO STP APCH 082000 RJTT (APCH)ILS Y RWY34R USING RWY 34R 34R 2017-03-09 05:05:03
201703081930 TIS ATIS RJTT W M1930 (APCH)ILS Y RWY34R USING RWY 34R DEP FREQ 126.0, RWY16R/34L AND 05/23 CLSD, M 081930Z 29004KT 30KM FEW060SC 03/M05 Q1006/A2971= Q/TWO NINE SEVEN ONE STP APCH 081930 RJTT (APCH)ILS Y RWY34R USING RWY 34R 34R 2017-03-09 04:35:03
201703081900 TIS ATIS RJTT V M1900 (APCH)ILS Y RWY34R USING RWY 34R DEP FREQ 126.0, RWY16R/34L AND 05/23 CLSD, M 081900Z 33005KT 30KM FEW060SC 04/M06 Q1006/A2971= Q/TWO NINE SEVEN ONE STP APCH 081900 RJTT (APCH)ILS Y RWY34R USING RWY 34R 34R 2017-03-09 04:05:03
201703081830 TIS ATIS RJTT U M1830 (APCH)ILS Y RWY34R USING RWY 34R DEP FREQ 126.0, RWY16R/34L AND 05/23 CLSD, M 081830Z 30004KT 30KM FEW060SC 04/M06 Q1005/A2970= Q/TWO NINE SEVEN ZERO STP APCH 081830 RJTT (APCH)ILS Y RWY34R USING RWY 34R 34R 2017-03-09 03:35:03
201703081800 TIS ATIS RJTT T M1800 (APCH)ILS Y RWY34R USING RWY 34R DEP FREQ 126.0, RWY16R/34L AND 05/23 CLSD, M 081800Z 32005KT 30KM FEW050SC 04/M06 Q1005/A2970= Q/TWO NINE SEVEN ZERO STP APCH 081800 RJTT (APCH)ILS Y RWY34R USING RWY 34R 34R 2017-03-09 03:10:04
201703081730 TIS ATIS RJTT S M1730 (APCH)ILS Y RWY34R USING RWY 34R DEP FREQ 126.0, RWY16R/34L AND 05/23 CLSD, M 081730Z 31004KT 30KM FEW050SC 05/M07 Q1006/A2971= Q/TWO NINE SEVEN ONE STP APCH 081730 RJTT (APCH)ILS Y RWY34R USING RWY 34R 34R 2017-03-09 02:40:02
201703081700 TIS ATIS RJTT R M1700 (APCH)ILS Y RWY34R USING RWY 34R DEP FREQ 126.0, RWY16R/34L AND 05/23 CLSD, M 081700Z 30005KT 270V340 30KM FEW050SC 05/M07 Q1006/A2971= Q/TWO NINE SEVEN ONE STP APCH 081700 RJTT (APCH)ILS Y RWY34R USING RWY 34R 34R 2017-03-09 02:05:03
201703081630 TIS ATIS RJTT Q M1630 (APCH)ILS Y RWY34R USING RWY 34R DEP FREQ 126.0, RWY16R/34L AND 05/23 CLSD, M 081630Z 31005KT 280V350 30KM FEW050SC 05/M06 Q1006/A2971= Q/TWO NINE SEVEN ONE STP APCH 081630 RJTT (APCH)ILS Y RWY34R USING RWY 34R 34R 2017-03-09 01:35:03
201703081600 TIS ATIS RJTT P M1600 (APCH)ILS Y RWY34R USING RWY 34R DEP FREQ 126.0, RWY16R/34L AND 05/23 CLSD, M 081600Z 32007KT 30KM FEW050SC 05/M07 Q1006/A2971= Q/TWO NINE SEVEN ONE STP APCH 081600 RJTT (APCH)ILS Y RWY34R USING RWY 34R 34R 2017-03-09 01:05:03
201703081530 TIS ATIS RJTT O M1530 (APCH)ILS Y RWY34R USING RWY 34R DEP FREQ 126.0, RWY16R/34L AND 05/23 CLSD, M 081530Z 35007KT 30KM FEW050SC 06/M06 Q1006/A2971= Q/TWO NINE SEVEN ONE STP APCH 081530 RJTT (APCH)ILS Y RWY34R USING RWY 34R 34R 2017-03-09 00:35:03
201703081500 TIS ATIS RJTT N M1500 (APCH)ILS Y RWY34R USING RWY 34R DEP FREQ 126.0, RWY16R/34L AND 05/23 CLSD, M 081500Z 35009KT 30KM FEW070AC 07/M05 Q1005/A2970= Q/TWO NINE SEVEN ZERO STP APCH 081500 RJTT (APCH)ILS Y RWY34R USING RWY 34R 34R 2017-03-09 00:05:04
201703081430 TIS ATIS RJTT M M1430 (APCH)ILS Y RWY34R USING RWY 34R DEP FREQ 126.0, RWY16R/34L AND 05/23 CLSD, M 081430Z 32007KT 30KM FEW030CU 05/M03 Q1006/A2971= Q/TWO NINE SEVEN ONE STP APCH 081430 RJTT (APCH)ILS Y RWY34R USING RWY 34R 34R 2017-03-08 23:35:03
201703081400 TIS ATIS RJTT K M1400 (APCH)ILS Y RWY34R LDG RWY 34R DEP RWY 05 DEP FREQ 126.0, RWY16R/34L AND 05/23 WILL BE CLSD FM 1430, M 081400Z 32006KT 30KM FEW030CU 06/M01 Q1006/A2971= Q/TWO NINE SEVEN ONE STP APCH 081400 RJTT (APCH)ILS Y RWY34R LDG RWY 34R DEP RWY 05 34R 2017-03-08 23:05:03
201703081330 TIS ATIS RJTT J M1330 (APCH)ILS X RWY34L/HIGHWAY VSL RWY34R LDG RWY 34L/34R DEP RWY 05/34R DEP FREQ 126.0, SIMUL APCHS TO RWY34L/R ARE INPR, RWY16R/34L AND 05/23 WILL BE CLSD FM 1430, M 081330Z VRB01KT 30KM FEW025CU 07/00 Q1006/A2971= Q/TWO NINE SEVEN ONE STP APCH 081330 RJTT (APCH)ILS X RWY34L/HIGHWAY VSL RWY34R LDG RWY 34L/34R DEP RWY 05/34R 34L,34R 2017-03-08 22:35:13
201703081300 TIS ATIS RJTT I M1300 (APCH)ILS X RWY34L/HIGHWAY VSL RWY34R LDG RWY 34L/34R DEP RWY 05/34R DEP FREQ 126.0, SIMUL APCHS TO RWY34L/R ARE INPR, M 081300Z 00000KT 30KM FEW025CU 07/00 Q1006/A2971= Q/TWO NINE SEVEN ONE STP APCH 081300 RJTT (APCH)ILS X RWY34L/HIGHWAY VSL RWY34R LDG RWY 34L/34R DEP RWY 05/34R 34L,34R 2017-03-08 22:05:03
201703081230 TIS ATIS RJTT H M1230 (APCH)ILS X RWY34L/HIGHWAY VSL RWY34R LDG RWY 34L/34R DEP RWY 05/34R DEP FREQ 126.0, SIMUL APCHS TO RWY34L/R ARE INPR, M 081230Z 11003KT 30KM FEW060SC 07/01 Q1006/A2971= Q/TWO NINE SEVEN ONE STP APCH 081230 RJTT (APCH)ILS X RWY34L/HIGHWAY VSL RWY34R LDG RWY 34L/34R DEP RWY 05/34R 34L,34R 2017-03-08 21:35:04
201703081200 TIS ATIS RJTT G M1200 (APCH)ILS X RWY34L/HIGHWAY VSL RWY34R LDG RWY 34L/34R DEP RWY 05/34R DEP FREQ 126.0, SIMUL APCHS TO RWY34L/R ARE INPR, M 081200Z 16006KT 30KM FEW060SC 06/M01 Q1006/A2971= Q/TWO NINE SEVEN ONE STP APCH 081200 RJTT (APCH)ILS X RWY34L/HIGHWAY VSL RWY34R LDG RWY 34L/34R DEP RWY 05/34R 34L,34R 2017-03-08 21:05:05
201703081130 TIS ATIS RJTT F M1130 (APCH)ILS X RWY34L/HIGHWAY VSL RWY34R LDG RWY 34L/34R DEP RWY 05/34R DEP FREQ 126.0, SIMUL APCHS TO RWY34L/R ARE INPR, M 081130Z 16008KT 150V210 30KM FEW060SC 07/M02 Q1005/A2970= Q/TWO NINE SEVEN ZERO STP APCH 081130 RJTT (APCH)ILS X RWY34L/HIGHWAY VSL RWY34R LDG RWY 34L/34R DEP RWY 05/34R 34L,34R 2017-03-08 20:35:03
201703081100 TIS ATIS RJTT E M1100 (APCH)ILS X RWY34L/HIGHWAY VSL RWY34R LDG RWY 34L/34R DEP RWY 05/34R DEP FREQ 126.0, SIMUL APCHS TO RWY34L/R ARE INPR, M 081100Z 16009KT 30KM FEW030CU 07/M01 Q1005/A2969= Q/TWO NINE SIX NINE STP APCH 081100 RJTT (APCH)ILS X RWY34L/HIGHWAY VSL RWY34R LDG RWY 34L/34R DEP RWY 05/34R 34L,34R 2017-03-08 20:05:04
201703081030 TIS ATIS RJTT C M1030 (APCH)ILS X RWY34L/HIGHWAY VSL RWY34R LDG RWY 34L/34R DEP RWY 05/34R DEP FREQ 126.0 FM RWY05. 120.8 FM RWY34R, SIMUL APCHS TO RWY34L/R ARE INPR, M 081030Z VRB02KT 30KM FEW030CU 08/M04 Q1005/A2968= Q/TWO NINE SIX EIGHT STP APCH 081030 RJTT (APCH)ILS X RWY34L/HIGHWAY VSL RWY34R LDG RWY 34L/34R DEP RWY 05/34R 34L,34R 2017-03-08 19:35:04
201703081000 TIS ATIS RJTT A M1000 (APCH)ILS Z RWY34L/ILS Z RWY34R LDG RWY 34L/34R DEP RWY 05/34R DEP FREQ 126.0 FM RWY05. 120.8 FM RWY34R, SIMUL PARL ILS APCHS TO RWY34L/R ARE INPR, M 081000Z VRB02KT 30KM FEW030CU 08/M04 Q1004/A2967= Q/TWO NINE SIX SEVEN STP APCH 081000 RJTT (APCH)ILS Z RWY34L/ILS Z RWY34R LDG RWY 34L/34R DEP RWY 05/34R 34L,34R 2017-03-08 19:05:04
201703080930 TIS ATIS RJTT Z M0930 (APCH)ILS Z RWY34L/ILS Z RWY34R LDG RWY 34L/34R DEP RWY 05/34R DEP FREQ 126.0 FM RWY05. 120.8 FM RWY34R, SIMUL PARL ILS APCHS TO RWY34L/R ARE INPR, M 080930Z 19005KT 140V230 30KM FEW030CU 08/M04 Q1004/A2967= Q/TWO NINE SIX SEVEN STP APCH 080930 RJTT (APCH)ILS Z RWY34L/ILS Z RWY34R LDG RWY 34L/34R DEP RWY 05/34R 34L,34R 2017-03-08 18:35:05
201703080900 TIS ATIS RJTT Y M0900 (APCH)ILS Z RWY34L/ILS Z RWY34R LDG RWY 34L/34R DEP RWY 05/34R DEP FREQ 126.0 FM RWY05. 120.8 FM RWY34R, SIMUL PARL ILS APCHS TO RWY34L/R ARE INPR, M 080900Z 19007KT 160V220 35KM FEW030CU 08/M05 Q1004/A2966 RMK VIRGA ABT 30KM S MOV SE= Q/TWO NINE SIX SIX STP APCH 080900 RJTT (APCH)ILS Z RWY34L/ILS Z RWY34R LDG RWY 34L/34R DEP RWY 05/34R 34L,34R 2017-03-08 18:05:04
201703080830 TIS ATIS RJTT X M0830 (APCH)ILS Z RWY34L/ILS Z RWY34R LDG RWY 34L/34R DEP RWY 05/34R DEP FREQ 126.0 FM RWY05. 120.8 FM RWY34R, SIMUL PARL ILS APCHS TO RWY34L/R ARE INPR, M 080830Z 22010KT 35KM FEW030CU SCT060SC 09/M04 Q1004/A2966 RMK VIRGA ABT 30KM S-SW MOV SE= Q/TWO NINE SIX SIX STP APCH 080830 RJTT (APCH)ILS Z RWY34L/ILS Z RWY34R LDG RWY 34L/34R DEP RWY 05/34R 34L,34R 2017-03-08 17:35:04
201703080800 TIS ATIS RJTT W M0800 (APCH)ILS Z RWY34L/ILS Z RWY34R LDG RWY 34L/34R DEP RWY 05/34R DEP FREQ 126.0 FM RWY05. 120.8 FM RWY34R, SIMUL PARL ILS APCHS TO RWY34L/R ARE INPR, M 080800Z 22009KT 35KM FEW030CU BKN070AC 09/M07 Q1004/A2965 RMK VIRGA ABT 30KM S-SW MOV SE= Q/TWO NINE SIX FIVE STP APCH 080800 RJTT (APCH)ILS Z RWY34L/ILS Z RWY34R LDG RWY 34L/34R DEP RWY 05/34R 34L,34R 2017-03-08 17:05:05
201703080730 TIS ATIS RJTT U M0730 (APCH)ILS X RWY34L/HIGHWAY VSL RWY34R LDG RWY 34L/34R DEP RWY 05/34R DEP FREQ 126.0 FM RWY05. 120.8 FM RWY34R, SIMUL APCHS TO RWY34L/R ARE INPR, M 080730Z 18008KT 140V200 35KM FEW030CU BKN080AC 10/M08 Q1004/A2965= Q/TWO NINE SIX FIVE STP APCH 080730 RJTT (APCH)ILS X RWY34L/HIGHWAY VSL RWY34R LDG RWY 34L/34R DEP RWY 05/34R 34L,34R 2017-03-08 16:35:03
201703080700 TIS ATIS RJTT T M0700 (APCH)ILS X RWY34L/HIGHWAY VSL RWY34R LDG RWY 34L/34R DEP RWY 05/34R DEP FREQ 126.0 FM RWY05. 120.8 FM RWY34R, SIMUL APCHS TO RWY34L/R ARE INPR, M 080700Z 16006KT 130V280 35KM FEW030CU BKN070AC BKN100AC 09/M07 Q1003/A2964= Q/TWO NINE SIX FOUR STP APCH 080700 RJTT (APCH)ILS X RWY34L/HIGHWAY VSL RWY34R LDG RWY 34L/34R DEP RWY 05/34R 34L,34R 2017-03-08 16:05:04
201703080630 TIS ATIS RJTT S M0630 (APCH)ILS X RWY34L/HIGHWAY VSL RWY34R LDG RWY 34L/34R DEP RWY 05/34R DEP FREQ 126.0 FM RWY05. 120.8 FM RWY34R, SIMUL APCHS TO RWY34L/R ARE INPR, M 080630Z 20006KT 150V290 35KM FEW030CU BKN070AC 09/M08 Q1003/A2964= Q/TWO NINE SIX FOUR STP APCH 080630 RJTT (APCH)ILS X RWY34L/HIGHWAY VSL RWY34R LDG RWY 34L/34R DEP RWY 05/34R 34L,34R 2017-03-08 15:35:04
201703080600 TIS ATIS RJTT R M0600 (APCH)ILS X RWY34L/HIGHWAY VSL RWY34R LDG RWY 34L/34R DEP RWY 05/34R DEP FREQ 126.0 FM RWY05. 120.8 FM RWY34R, SIMUL APCHS TO RWY34L/R ARE INPR, M 080600Z 18007KT 35KM FEW030CU BKN080AC 09/M08 Q1003/A2963= Q/TWO NINE SIX THREE STP APCH 080600 RJTT (APCH)ILS X RWY34L/HIGHWAY VSL RWY34R LDG RWY 34L/34R DEP RWY 05/34R 34L,34R 2017-03-08 15:05:05
201703080530 TIS ATIS RJTT Q M0530 (APCH)ILS X RWY34L/HIGHWAY VSL RWY34R LDG RWY 34L/34R DEP RWY 05/34R DEP FREQ 126.0 FM RWY05. 120.8 FM RWY34R, SIMUL APCHS TO RWY34L/R ARE INPR, M 080530Z 14006KT 35KM FEW030CU BKN070AC 09/M07 Q1003/A2962 RMK MOD TURB OBS AT 0525Z OVER COLOR 11000FT BY B763= Q/TWO NINE SIX TWO STP APCH 080530 RJTT (APCH)ILS X RWY34L/HIGHWAY VSL RWY34R LDG RWY 34L/34R DEP RWY 05/34R 34L,34R 2017-03-08 14:35:03
201703080500 TIS ATIS RJTT O M0500 (APCH)ILS X RWY34L/HIGHWAY VSL RWY34R LDG RWY 34L/34R DEP RWY 05/34R DEP FREQ 126.0 FM RWY05. 120.8 FM RWY34R, SIMUL APCHS TO RWY34L/R ARE INPR, M 080500Z 13007KT 35KM FEW030CU BKN070AC 09/M04 Q1003/A2962= Q/TWO NINE SIX TWO STP APCH 080500 RJTT (APCH)ILS X RWY34L/HIGHWAY VSL RWY34R LDG RWY 34L/34R DEP RWY 05/34R 34L,34R 2017-03-08 14:05:05
201703080430 TIS ATIS RJTT N M0430 (APCH)ILS X RWY34L/HIGHWAY VSL RWY34R LDG RWY 34L/34R DEP RWY 05/34R DEP FREQ 126.0 FM RWY05. 120.8 FM RWY34R, SIMUL APCHS TO RWY34L/R ARE INPR, M 080430Z 14007KT 35KM FEW030CU BKN070AC 09/M06 Q1003/A2963= Q/TWO NINE SIX THREE STP APCH 080430 RJTT (APCH)ILS X RWY34L/HIGHWAY VSL RWY34R LDG RWY 34L/34R DEP RWY 05/34R 34L,34R 2017-03-08 13:35:03